Maersk Bali — 9V7499 — position and weather

sailwx.info

Track history (hours):
 
Tides and Currents Weather Stations Pressure Air Temp Water Temp Dewpoint Dewpoint Depression Visibility Wind Speed Wind Dir Waves Ship Positions

Maersk Bali

Last reported at 2016-Nov-30 13:26 UTC. Time now 2016-Dec-05 18:34 UTC.
Position N 35°59' W 005°31'.

Length 223 m; draft 11.6 m.

Type: Ship (hazmat cat A). MMSI: 563102000.

Date/timePositionNaut miles runAvg speedWind from/ knotsBaromVisibWave heightAir tempDewpointWater temp
2016-Nov-30 13:26N 35°59' W 005°31'13 0.5
2016-Nov-29 10:33N 36°05' W 005°17'126 4.8
2016-Nov-28 08:19N 36°22' W 002°42'810.4
2016-Nov-28 07:33N 36°23' W 002°32'1110.4
2016-Nov-28 06:32N 36°25' W 002°19'1310.7
2016-Nov-28 05:19N 36°27' W 002°03'  
2016-Nov-25 05:04N 36°38' E 013°46'710.6
2016-Nov-25 04:24N 36°36' E 013°54'910.8
2016-Nov-25 03:33N 36°33' E 014°05'1110.8
2016-Nov-25 02:33N 36°30' E 014°18'1110.8
2016-Nov-25 01:33N 36°27' E 014°31'1111.0
2016-Nov-25 00:33N 36°24' E 014°44'47410.3
2016-Nov-23 02:22N 37°40' E 024°30'  
Track history (hours):
 
Tides and Currents Weather Stations Pressure Air Temp Water Temp Dewpoint Dewpoint Depression Visibility Wind Speed Wind Dir Waves Ship Positions

Maersk Bali

Last reported at 2016-Nov-30 13:26 UTC. Time now 2016-Dec-05 18:34 UTC.
Position N 35°59' W 005°31'.

Length 223 m; draft 11.6 m.

Type: Ship (hazmat cat A). MMSI: 563102000.

Date/timePositionNaut miles runAvg speedWind from/ knotsBaromVisibWave heightAir tempDewpointWater temp
2016-Nov-30 13:26N 35°59' W 005°31'13 0.5
2016-Nov-29 10:33N 36°05' W 005°17'126 4.8
2016-Nov-28 08:19N 36°22' W 002°42'810.4
2016-Nov-28 07:33N 36°23' W 002°32'1110.4
2016-Nov-28 06:32N 36°25' W 002°19'1310.7
2016-Nov-28 05:19N 36°27' W 002°03'  
2016-Nov-25 05:04N 36°38' E 013°46'710.6
2016-Nov-25 04:24N 36°36' E 013°54'910.8
2016-Nov-25 03:33N 36°33' E 014°05'1110.8
2016-Nov-25 02:33N 36°30' E 014°18'1110.8
2016-Nov-25 01:33N 36°27' E 014°31'1111.0
2016-Nov-25 00:33N 36°24' E 014°44'47410.3
2016-Nov-23 02:22N 37°40' E 024°30'  

Dump ship's entire track history